createdAt,value
2019-05-23T04:00:32.301Z,1001.98
2019-05-23T04:02:32.270Z,1002.00
2019-05-23T04:04:32.258Z,1002.03
2019-05-23T04:06:32.246Z,1001.96
2019-05-23T04:08:32.207Z,1002.07
2019-05-23T04:10:32.187Z,1002.05
2019-05-23T04:12:32.202Z,1002.05
2019-05-23T04:14:39.191Z,1002.08
2019-05-23T04:16:32.145Z,1002.06
2019-05-23T04:18:32.113Z,1002.10
2019-05-23T04:20:32.085Z,1002.03
2019-05-23T04:22:32.065Z,1002.14
2019-05-23T04:24:32.038Z,1002.14
2019-05-23T04:26:32.023Z,1002.11
2019-05-23T04:28:31.998Z,1002.04
2019-05-23T04:30:31.977Z,1001.99
2019-05-23T04:32:31.970Z,1002.02
2019-05-23T04:34:31.927Z,1002.08
2019-05-23T04:36:31.923Z,1002.05
2019-05-23T04:38:35.784Z,1001.96
2019-05-23T04:40:31.876Z,1001.95
2019-05-23T04:42:31.853Z,1001.93
2019-05-23T04:44:31.835Z,1001.94
2019-05-23T04:46:31.807Z,1002.00
2019-05-23T04:48:31.777Z,1001.97
2019-05-23T04:50:31.766Z,1001.93
2019-05-23T04:52:31.749Z,1001.95
2019-05-23T04:54:31.714Z,1001.90
2019-05-23T04:56:31.702Z,1001.91
2019-05-23T04:58:31.675Z,1001.89
2019-05-23T05:00:31.691Z,1001.91
2019-05-23T05:02:31.623Z,1001.90
2019-05-23T05:04:31.611Z,1001.93
2019-05-23T05:06:31.600Z,1001.89
2019-05-23T05:08:31.572Z,1001.89
2019-05-23T05:10:31.577Z,1001.83
2019-05-23T05:12:31.525Z,1001.95
2019-05-23T05:14:31.492Z,1001.95
2019-05-23T05:16:31.519Z,1001.84
2019-05-23T05:18:31.499Z,1001.89
2019-05-23T05:20:31.445Z,1001.85
2019-05-23T05:22:31.413Z,1001.94
2019-05-23T05:24:31.410Z,1001.91
2019-05-23T05:26:31.370Z,1002.02
2019-05-23T05:28:31.352Z,1002.07
2019-05-23T05:30:31.329Z,1002.05
2019-05-23T05:32:44.135Z,1002.01
2019-05-23T05:34:32.333Z,1002.06
2019-05-23T05:36:31.268Z,1001.99
2019-05-23T05:38:31.236Z,1001.99
2019-05-23T05:40:31.230Z,1001.95
2019-05-23T05:42:31.196Z,1001.98
2019-05-23T05:44:31.185Z,1002.02
2019-05-23T05:46:31.165Z,1002.06
2019-05-23T05:48:31.132Z,1002.11
2019-05-23T05:50:31.106Z,1002.09
2019-05-23T05:52:31.097Z,1002.03
2019-05-23T05:54:31.074Z,1002.04
2019-05-23T05:56:31.044Z,1002.06
2019-05-23T05:58:31.035Z,1002.19
2019-05-23T06:00:31.014Z,1002.18
2019-05-23T06:02:31.067Z,1002.17
2019-05-23T06:04:30.965Z,1002.15
2019-05-23T06:06:30.937Z,1002.10
2019-05-23T06:08:30.925Z,1002.16
2019-05-23T06:10:30.911Z,1002.12
2019-05-23T06:12:30.876Z,1002.14
2019-05-23T06:14:30.870Z,1002.11
2019-05-23T06:16:30.948Z,1002.17
2019-05-23T06:18:30.814Z,1002.13
2019-05-23T06:20:30.807Z,1002.25
2019-05-23T06:22:30.772Z,1002.23
2019-05-23T06:24:44.347Z,1002.22
2019-05-23T06:26:31.744Z,1002.23
2019-05-23T06:28:30.704Z,1002.21
2019-05-23T06:30:32.857Z,1002.17
2019-05-23T06:32:30.669Z,1002.11
2019-05-23T06:34:30.708Z,1002.23
2019-05-23T06:36:30.640Z,1002.22
2019-05-23T06:38:30.618Z,1002.23
2019-05-23T06:40:30.569Z,1002.23
2019-05-23T06:42:30.562Z,1002.27
2019-05-23T06:44:30.533Z,1002.23
2019-05-23T06:46:30.521Z,1002.24
2019-05-23T06:48:30.490Z,1002.23
2019-05-23T06:50:30.498Z,1002.25
2019-05-23T06:52:30.468Z,1002.20
2019-05-23T06:54:30.425Z,1002.26
2019-05-23T06:56:30.397Z,1002.18
2019-05-23T06:58:30.393Z,1002.29
2019-05-23T07:00:30.360Z,1002.23
2019-05-23T07:02:32.115Z,1002.29
2019-05-23T07:04:30.318Z,1002.35
2019-05-23T07:06:30.301Z,1002.31
2019-05-23T07:08:30.283Z,1002.18
2019-05-23T07:10:30.249Z,1002.26
2019-05-23T07:12:30.235Z,1002.20
2019-05-23T07:14:30.223Z,1002.20
2019-05-23T07:16:30.199Z,1002.22
2019-05-23T07:18:30.167Z,1002.19
2019-05-23T07:20:30.165Z,1002.25
2019-05-23T07:22:30.128Z,1002.25
2019-05-23T07:24:30.108Z,1002.27
2019-05-23T07:26:30.101Z,1002.28
2019-05-23T07:28:30.103Z,1002.35
2019-05-23T07:30:30.041Z,1002.31
2019-05-23T07:32:30.031Z,1002.32
2019-05-23T07:34:30.012Z,1002.29
2019-05-23T07:36:29.978Z,1002.32
2019-05-23T07:38:29.978Z,1002.30
2019-05-23T07:40:29.949Z,1002.32
2019-05-23T07:42:29.930Z,1002.35
2019-05-23T07:44:29.930Z,1002.29
2019-05-23T07:46:29.881Z,1002.27
2019-05-23T07:48:29.859Z,1002.25
2019-05-23T07:50:29.854Z,1002.31
2019-05-23T07:52:29.827Z,1002.29
2019-05-23T07:54:29.796Z,1002.30
2019-05-23T07:56:29.779Z,1002.24
2019-05-23T07:58:29.753Z,1002.12
2019-05-23T08:00:29.792Z,1002.20
2019-05-23T08:02:29.712Z,1002.21
2019-05-23T08:04:29.711Z,1002.22
2019-05-23T08:06:29.674Z,1002.21
2019-05-23T08:08:29.664Z,1002.16
2019-05-23T08:10:33.787Z,1002.09
2019-05-23T08:12:29.615Z,1002.12
2019-05-23T08:14:29.588Z,1002.11
2019-05-23T08:16:29.572Z,1002.14
2019-05-23T08:18:29.556Z,1002.17
2019-05-23T08:20:29.522Z,1002.16
2019-05-23T08:22:29.509Z,1002.13
2019-05-23T08:24:29.482Z,1002.13
2019-05-23T08:26:29.480Z,1002.12
2019-05-23T08:28:29.442Z,1002.09
2019-05-23T08:30:29.420Z,1002.17
2019-05-23T08:32:29.408Z,1002.03
2019-05-23T08:34:41.625Z,1002.07
2019-05-23T08:36:30.380Z,1002.13
2019-05-23T08:38:29.338Z,1002.07
2019-05-23T08:40:29.306Z,1002.03
2019-05-23T08:42:29.307Z,1002.07
2019-05-23T08:44:29.278Z,1002.09
2019-05-23T08:46:29.243Z,1002.09
2019-05-23T08:48:29.239Z,1002.07
2019-05-23T08:50:29.207Z,1001.99
2019-05-23T08:52:29.185Z,1001.99
2019-05-23T08:54:29.175Z,1002.04
2019-05-23T08:56:29.144Z,1002.04
2019-05-23T08:58:29.120Z,1001.98
2019-05-23T09:00:29.110Z,1002.06
2019-05-23T09:02:29.082Z,1002.02
2019-05-23T09:04:29.055Z,1002.02
2019-05-23T09:06:29.050Z,1002.01
2019-05-23T09:08:29.020Z,1001.97
2019-05-23T09:10:29.018Z,1002.01
2019-05-23T09:12:28.976Z,1001.97
2019-05-23T09:14:29.019Z,1001.93
2019-05-23T09:16:28.993Z,1001.90
2019-05-23T09:18:28.911Z,1001.87
2019-05-23T09:20:28.900Z,1001.81
2019-05-23T09:22:28.874Z,1001.89
2019-05-23T09:24:28.843Z,1001.91
2019-05-23T09:26:28.830Z,1001.90
2019-05-23T09:28:28.809Z,1001.89
2019-05-23T09:30:28.779Z,1001.90
2019-05-23T09:32:28.774Z,1001.86
2019-05-23T09:34:28.737Z,1001.80
2019-05-23T09:36:28.715Z,1001.91
2019-05-23T09:38:28.703Z,1001.85
2019-05-23T09:40:28.666Z,1001.82
2019-05-23T09:42:28.646Z,1001.79
2019-05-23T09:44:28.635Z,1001.82
2019-05-23T09:46:28.605Z,1001.72
2019-05-23T09:48:28.585Z,1001.76
2019-05-23T09:50:28.592Z,1001.74
2019-05-23T09:52:28.540Z,1001.70
2019-05-23T09:54:28.542Z,1001.74
2019-05-23T09:56:28.512Z,1001.69
2019-05-23T09:58:28.483Z,1001.66
2019-05-23T10:00:28.470Z,1001.61
2019-05-23T10:02:28.435Z,1001.64
2019-05-23T10:04:28.414Z,1001.58
2019-05-23T10:06:28.416Z,1001.64
2019-05-23T10:08:28.371Z,1001.57
2019-05-23T10:10:28.356Z,1001.58
2019-05-23T10:12:28.346Z,1001.55
2019-05-23T10:14:28.310Z,1001.46
2019-05-23T10:16:28.287Z,1001.48
2019-05-23T10:18:28.277Z,1001.48
2019-05-23T10:20:28.245Z,1001.45
2019-05-23T10:22:28.223Z,1001.37
2019-05-23T10:24:28.209Z,1001.50
2019-05-23T10:26:28.180Z,1001.43
2019-05-23T10:28:28.189Z,1001.30
2019-05-23T10:30:28.135Z,1001.32
2019-05-23T10:32:28.121Z,1001.37
2019-05-23T10:34:28.106Z,1001.40
2019-05-23T10:36:28.073Z,1001.34
2019-05-23T10:38:29.386Z,1001.20
2019-05-23T10:40:28.039Z,1001.32
2019-05-23T10:42:28.009Z,1001.27
2019-05-23T10:44:27.992Z,1001.29
2019-05-23T10:46:27.979Z,1001.29
2019-05-23T10:48:27.946Z,1001.25
2019-05-23T10:50:41.946Z,1001.31
2019-05-23T10:52:28.897Z,1001.24
2019-05-23T10:54:27.876Z,1001.11
2019-05-23T10:56:27.871Z,1001.16
2019-05-23T10:58:27.845Z,1001.09
2019-05-23T11:00:27.834Z,1001.08
2019-05-23T11:02:27.797Z,1001.09
2019-05-23T11:04:27.772Z,1001.08
2019-05-23T11:06:27.790Z,1001.03
2019-05-23T11:08:30.114Z,1001.00
2019-05-23T11:10:27.741Z,1001.07
2019-05-23T11:12:27.695Z,1000.97
2019-05-23T11:14:27.677Z,1000.92
2019-05-23T11:16:27.682Z,1000.84
2019-05-23T11:18:27.634Z,1000.85
2019-05-23T11:20:27.601Z,1000.85
2019-05-23T11:22:27.585Z,1000.81
2019-05-23T11:24:27.567Z,1000.84
2019-05-23T11:26:27.535Z,1000.79
2019-05-23T11:28:27.528Z,1000.81
2019-05-23T11:30:27.499Z,1000.79
2019-05-23T11:32:27.489Z,1000.86
2019-05-23T11:34:27.474Z,1000.84
2019-05-23T11:36:35.531Z,1000.88
2019-05-23T11:38:28.567Z,1000.88
2019-05-23T11:40:27.399Z,1000.86
2019-05-23T11:42:27.364Z,1000.77
2019-05-23T11:44:27.358Z,1000.82
2019-05-23T11:46:27.324Z,1000.83
2019-05-23T11:48:27.305Z,1000.80
2019-05-23T11:50:27.293Z,1000.79
2019-05-23T11:52:27.257Z,1000.71
2019-05-23T11:54:27.247Z,1000.67
2019-05-23T11:56:27.228Z,1000.69
2019-05-23T11:58:27.194Z,1000.68
2019-05-23T12:00:27.193Z,1000.66
2019-05-23T12:02:27.187Z,1000.62
2019-05-23T12:04:27.127Z,1000.61
2019-05-23T12:06:27.115Z,1000.53
2019-05-23T12:08:27.089Z,1000.60
2019-05-23T12:10:27.068Z,1000.56
2019-05-23T12:12:27.060Z,1000.61
2019-05-23T12:14:27.028Z,1000.47
2019-05-23T12:16:27.012Z,1000.53
2019-05-23T12:18:26.978Z,1000.50
2019-05-23T12:20:26.957Z,1000.58
2019-05-23T12:22:26.957Z,1000.57
2019-05-23T12:24:26.929Z,1000.52
2019-05-23T12:26:26.907Z,1000.45
2019-05-23T12:28:26.884Z,1000.44
2019-05-23T12:30:26.875Z,1000.45
2019-05-23T12:32:26.834Z,1000.47
2019-05-23T12:34:26.910Z,1000.48
2019-05-23T12:36:26.791Z,1000.38
2019-05-23T12:38:26.783Z,1000.39
2019-05-23T12:40:26.745Z,1000.38
2019-05-23T12:42:26.734Z,1000.41
2019-05-23T12:44:26.715Z,1000.31
2019-05-23T12:46:26.684Z,1000.31
2019-05-23T12:48:26.677Z,1000.37
2019-05-23T12:50:26.646Z,1000.33
2019-05-23T12:52:26.627Z,1000.27
2019-05-23T12:54:26.615Z,1000.29
2019-05-23T12:56:26.577Z,1000.23
2019-05-23T12:58:26.574Z,1000.19
2019-05-23T13:00:26.565Z,1000.24
2019-05-23T13:02:26.563Z,1000.18
2019-05-23T13:04:26.497Z,1000.23
2019-05-23T13:06:26.489Z,1000.21
2019-05-23T13:08:26.464Z,1000.11
2019-05-23T13:10:26.451Z,1000.11
2019-05-23T13:12:26.415Z,1000.11
2019-05-23T13:14:26.393Z,1000.10
2019-05-23T13:16:26.383Z,1000.12
2019-05-23T13:18:26.350Z,1000.13
2019-05-23T13:20:26.343Z,1000.06
2019-05-23T13:22:26.316Z,1000.05
2019-05-23T13:24:26.349Z,1000.00
2019-05-23T13:26:26.273Z,999.87
2019-05-23T13:28:26.262Z,999.96
2019-05-23T13:30:26.220Z,999.97
2019-05-23T13:32:26.222Z,1000.02
2019-05-23T13:34:26.188Z,999.93
2019-05-23T13:36:26.188Z,999.93
2019-05-23T13:38:26.164Z,999.98
2019-05-23T13:40:26.117Z,999.95
2019-05-23T13:42:26.101Z,999.98
2019-05-23T13:44:34.511Z,999.92
2019-05-23T13:46:27.047Z,999.90
2019-05-23T13:48:28.246Z,999.75
2019-05-23T13:50:26.027Z,999.76
2019-05-23T13:52:25.992Z,999.89
2019-05-23T13:54:25.969Z,999.85
2019-05-23T13:56:25.957Z,999.75
2019-05-23T13:58:25.922Z,999.71
2019-05-23T14:00:25.900Z,999.74
2019-05-23T14:02:25.891Z,999.78
2019-05-23T14:04:25.861Z,999.78
2019-05-23T14:06:25.836Z,999.78
2019-05-23T14:08:25.825Z,999.70
2019-05-23T14:10:25.793Z,999.89
2019-05-23T14:12:25.809Z,999.72
2019-05-23T14:14:25.764Z,999.70
2019-05-23T14:16:25.731Z,999.69
2019-05-23T14:18:25.720Z,999.76
2019-05-23T14:20:25.699Z,999.74
2019-05-23T14:22:25.664Z,999.73
2019-05-23T14:24:25.681Z,999.73
2019-05-23T14:26:25.636Z,999.75
2019-05-23T14:28:25.610Z,999.63
2019-05-23T14:30:25.597Z,999.72
2019-05-23T14:32:25.562Z,999.52
2019-05-23T14:34:25.533Z,999.63
2019-05-23T14:36:25.528Z,999.53
2019-05-23T14:38:30.791Z,999.57
2019-05-23T14:40:26.477Z,999.53
2019-05-23T14:42:25.463Z,999.61
2019-05-23T14:44:25.437Z,999.59
2019-05-23T14:46:25.416Z,999.64
2019-05-23T14:48:25.398Z,999.49
2019-05-23T14:50:25.361Z,999.53
2019-05-23T14:52:25.350Z,999.43
2019-05-23T14:54:25.334Z,999.56
2019-05-23T14:56:25.305Z,999.64
2019-05-23T14:58:25.296Z,999.45
2019-05-23T15:00:25.262Z,999.46
2019-05-23T15:02:25.230Z,999.46
2019-05-23T15:04:25.219Z,999.44
2019-05-23T15:06:25.192Z,999.32
2019-05-23T15:08:25.188Z,999.38
2019-05-23T15:10:25.163Z,999.38
2019-05-23T15:12:25.122Z,999.26
2019-05-23T15:14:25.114Z,999.34
2019-05-23T15:16:25.082Z,999.29
2019-05-23T15:18:25.063Z,999.25
2019-05-23T15:20:25.059Z,999.35
2019-05-23T15:22:25.022Z,999.17
2019-05-23T15:24:25.024Z,999.34
2019-05-23T15:26:24.980Z,999.27
2019-05-23T15:28:24.957Z,999.25
2019-05-23T15:30:24.950Z,999.28
2019-05-23T15:32:24.914Z,999.22
2019-05-23T15:34:24.933Z,999.20
2019-05-23T15:36:24.876Z,999.24
2019-05-23T15:38:24.853Z,999.23
2019-05-23T15:40:24.853Z,999.08
2019-05-23T15:42:24.812Z,999.18
2019-05-23T15:44:27.825Z,999.11
2019-05-23T15:46:24.784Z,999.15
2019-05-23T15:48:24.775Z,999.16
2019-05-23T15:50:24.723Z,999.11
2019-05-23T15:52:24.713Z,999.12
2019-05-23T15:54:24.689Z,999.09
2019-05-23T15:56:28.174Z,999.05
2019-05-23T15:58:24.646Z,999.02
2019-05-23T16:00:24.633Z,998.98
2019-05-23T16:02:24.605Z,999.03
2019-05-23T16:04:24.602Z,999.07
2019-05-23T16:06:24.558Z,998.99
2019-05-23T16:08:24.549Z,999.07
2019-05-23T16:10:24.514Z,998.99
2019-05-23T16:12:24.501Z,998.95
2019-05-23T16:14:24.479Z,998.97
2019-05-23T16:16:24.446Z,998.97
2019-05-23T16:18:24.977Z,998.97
2019-05-23T16:20:24.416Z,998.97
2019-05-23T16:22:24.385Z,998.94
2019-05-23T16:24:24.381Z,998.90
2019-05-23T16:26:24.377Z,998.85
2019-05-23T16:28:24.329Z,998.94
2019-05-23T16:30:24.294Z,998.90
2019-05-23T16:32:24.273Z,998.88
2019-05-23T16:34:24.262Z,998.92
2019-05-23T16:36:24.241Z,998.90
2019-05-23T16:38:24.235Z,998.88
2019-05-23T16:40:24.188Z,998.92
2019-05-23T16:42:24.167Z,998.87
2019-05-23T16:44:24.162Z,998.91
2019-05-23T16:46:24.159Z,998.82
2019-05-23T16:48:24.303Z,998.84
2019-05-23T16:50:24.247Z,998.86
2019-05-23T16:52:24.495Z,998.90
2019-05-23T16:54:24.084Z,998.88
2019-05-23T16:56:24.041Z,998.90
2019-05-23T16:58:24.033Z,998.96
2019-05-23T17:00:23.991Z,998.92
2019-05-23T17:02:23.963Z,998.91
2019-05-23T17:04:24.010Z,998.91
2019-05-23T17:06:23.935Z,998.90
2019-05-23T17:08:23.905Z,998.83
2019-05-23T17:10:23.943Z,998.86
2019-05-23T17:12:23.867Z,998.87
2019-05-23T17:14:23.864Z,998.95
2019-05-23T17:16:23.835Z,998.87
2019-05-23T17:18:23.799Z,998.85
2019-05-23T17:20:23.779Z,998.81
2019-05-23T17:22:23.756Z,998.80
2019-05-23T17:24:23.750Z,998.85
2019-05-23T17:26:23.721Z,998.82
2019-05-23T17:28:23.701Z,998.82
2019-05-23T17:30:23.698Z,998.84
2019-05-23T17:32:23.651Z,998.78
2019-05-23T17:34:23.645Z,998.81
2019-05-23T17:36:23.604Z,998.80
2019-05-23T17:38:23.577Z,998.73
2019-05-23T17:40:25.517Z,998.74
2019-05-23T17:42:23.542Z,998.75
2019-05-23T17:44:23.517Z,998.73
2019-05-23T17:46:23.506Z,998.73
2019-05-23T17:48:23.503Z,998.66
2019-05-23T17:50:23.458Z,998.63
2019-05-23T17:52:23.445Z,998.63
2019-05-23T17:54:23.417Z,998.63
2019-05-23T17:56:23.405Z,998.59
2019-05-23T17:58:23.444Z,998.58
2019-05-23T18:00:23.342Z,998.59
2019-05-23T18:02:23.337Z,998.59
2019-05-23T18:04:23.312Z,998.70
2019-05-23T18:06:23.280Z,998.69
2019-05-23T18:08:23.270Z,998.68
2019-05-23T18:10:23.241Z,998.65
2019-05-23T18:12:23.212Z,998.66
2019-05-23T18:14:23.207Z,998.62
2019-05-23T18:16:23.174Z,998.61
2019-05-23T18:18:23.152Z,998.56
2019-05-23T18:20:23.137Z,998.61
2019-05-23T18:22:23.104Z,998.68
2019-05-23T18:24:23.098Z,998.66
2019-05-23T18:26:23.060Z,998.62
2019-05-23T18:28:23.064Z,998.66
2019-05-23T18:30:23.022Z,998.59
2019-05-23T18:32:23.010Z,998.61
2019-05-23T18:34:22.992Z,998.63
2019-05-23T18:36:22.957Z,998.69
2019-05-23T18:38:22.935Z,998.66
2019-05-23T18:40:22.923Z,998.72
2019-05-23T18:42:22.905Z,998.67
2019-05-23T18:44:22.874Z,998.69
2019-05-23T18:46:22.854Z,998.67
2019-05-23T18:48:22.838Z,998.71
2019-05-23T18:50:22.804Z,998.75
2019-05-23T18:52:22.799Z,998.76
2019-05-23T18:54:22.765Z,998.63
2019-05-23T18:56:22.745Z,998.71
2019-05-23T18:58:22.739Z,998.80
2019-05-23T19:00:22.710Z,998.78
2019-05-23T19:02:22.692Z,998.76
2019-05-23T19:04:22.663Z,998.79
2019-05-23T19:06:22.635Z,998.80
2019-05-23T19:08:22.629Z,998.82
2019-05-23T19:10:22.614Z,998.76
2019-05-23T19:12:22.585Z,998.87
2019-05-23T19:14:22.562Z,998.88
2019-05-23T19:16:22.528Z,998.86
2019-05-23T19:18:22.523Z,998.85
2019-05-23T19:20:22.489Z,998.85
2019-05-23T19:22:22.461Z,998.93
2019-05-23T19:24:22.449Z,998.86
2019-05-23T19:26:22.418Z,998.86
2019-05-23T19:28:22.412Z,998.90
2019-05-23T19:30:22.389Z,998.92
2019-05-23T19:32:22.371Z,998.92
2019-05-23T19:34:22.349Z,998.93
2019-05-23T19:36:22.315Z,998.96
2019-05-23T19:38:22.285Z,998.99
2019-05-23T19:40:22.299Z,999.05
2019-05-23T19:42:22.243Z,999.05
2019-05-23T19:44:22.219Z,999.12
2019-05-23T19:46:22.226Z,999.12
2019-05-23T19:48:22.180Z,999.19
2019-05-23T19:50:22.154Z,999.19
2019-05-23T19:52:22.148Z,999.23
2019-05-23T19:54:22.116Z,999.22
2019-05-23T19:56:22.105Z,999.21
2019-05-23T19:58:22.082Z,999.22
2019-05-23T20:00:22.051Z,999.23
2019-05-23T20:02:22.034Z,999.31
2019-05-23T20:04:26.184Z,999.28
2019-05-23T20:06:22.994Z,999.29
2019-05-23T20:08:21.963Z,999.36
2019-05-23T20:10:21.940Z,999.30
2019-05-23T20:12:21.929Z,999.30
2019-05-23T20:14:21.897Z,999.26
2019-05-23T20:16:21.875Z,999.30
2019-05-23T20:18:21.865Z,999.34
2019-05-23T20:20:21.901Z,999.39
2019-05-23T20:22:21.830Z,999.46
2019-05-23T20:24:21.789Z,999.32
2019-05-23T20:26:21.781Z,999.33
2019-05-23T20:28:21.747Z,999.30
2019-05-23T20:30:21.718Z,999.24
2019-05-23T20:32:21.711Z,999.32
2019-05-23T20:34:21.681Z,999.34
2019-05-23T20:36:21.673Z,999.38
2019-05-23T20:38:21.639Z,999.42
2019-05-23T20:40:21.613Z,999.34
2019-05-23T20:42:21.598Z,999.43
2019-05-23T20:44:21.594Z,999.45
2019-05-23T20:46:21.547Z,999.44
2019-05-23T20:48:21.547Z,999.41
2019-05-23T20:50:21.510Z,999.37
2019-05-23T20:52:21.486Z,999.39
2019-05-23T20:54:21.478Z,999.34
2019-05-23T20:56:21.437Z,999.34
2019-05-23T20:58:21.436Z,999.36
2019-05-23T21:00:21.406Z,999.34
2019-05-23T21:02:21.376Z,999.22
2019-05-23T21:04:21.369Z,999.26
2019-05-23T21:06:21.330Z,999.25
2019-05-23T21:08:21.313Z,999.23
2019-05-23T21:10:21.299Z,999.25
2019-05-23T21:12:29.939Z,999.26
2019-05-23T21:14:22.260Z,999.20
2019-05-23T21:16:21.239Z,999.25
2019-05-23T21:18:21.208Z,999.23
2019-05-23T21:20:21.198Z,999.27
2019-05-23T21:22:21.161Z,999.21
2019-05-23T21:24:21.147Z,999.22
2019-05-23T21:26:21.119Z,999.21
2019-05-23T21:28:21.098Z,999.24
2019-05-23T21:30:21.083Z,999.19
2019-05-23T21:32:21.050Z,999.15
2019-05-23T21:34:22.156Z,999.19
2019-05-23T21:36:21.022Z,999.15
2019-05-23T21:38:20.995Z,999.18
2019-05-23T21:40:20.986Z,999.16
2019-05-23T21:42:20.954Z,999.10
2019-05-23T21:44:20.926Z,999.14
2019-05-23T21:46:20.911Z,999.09
2019-05-23T21:48:20.878Z,999.13
2019-05-23T21:50:20.859Z,999.14
2019-05-23T21:52:20.851Z,999.16
2019-05-23T21:54:20.824Z,999.11
2019-05-23T21:56:20.813Z,999.13
2019-05-23T21:58:20.771Z,999.14
2019-05-23T22:00:20.752Z,999.12
2019-05-23T22:02:20.749Z,999.14
2019-05-23T22:04:20.719Z,999.09
2019-05-23T22:06:20.713Z,999.13
2019-05-23T22:08:20.670Z,999.04
2019-05-23T22:10:20.643Z,999.04
2019-05-23T22:12:20.638Z,999.05
2019-05-23T22:14:20.612Z,999.09
2019-05-23T22:16:20.587Z,999.08
2019-05-23T22:18:20.574Z,999.01
2019-05-23T22:20:20.558Z,999.06
2019-05-23T22:22:20.523Z,999.05
2019-05-23T22:24:20.494Z,999.05
2019-05-23T22:26:20.640Z,999.03
2019-05-23T22:28:20.596Z,999.02
2019-05-23T22:30:22.441Z,999.10
2019-05-23T22:32:21.378Z,999.03
2019-05-23T22:34:20.656Z,999.03
2019-05-23T22:36:20.414Z,999.00
2019-05-23T22:38:20.355Z,999.02
2019-05-23T22:40:20.342Z,999.02
2019-05-23T22:42:27.365Z,999.02
2019-05-23T22:44:20.281Z,999.03
2019-05-23T22:46:27.310Z,999.00
2019-05-23T22:48:20.247Z,998.97
2019-05-23T22:50:20.221Z,999.00
2019-05-23T22:52:20.220Z,998.97
2019-05-23T22:54:20.174Z,998.93
2019-05-23T22:56:20.169Z,999.01
2019-05-23T22:58:20.152Z,999.04
2019-05-23T23:00:20.117Z,998.99
2019-05-23T23:02:20.109Z,999.02
2019-05-23T23:04:20.113Z,998.98
2019-05-23T23:06:20.053Z,998.93
2019-05-23T23:08:20.046Z,998.84
2019-05-23T23:10:20.005Z,998.88
2019-05-23T23:12:19.986Z,998.97
2019-05-23T23:14:19.978Z,998.87
2019-05-23T23:16:19.966Z,998.87
2019-05-23T23:18:19.924Z,998.87
2019-05-23T23:20:19.952Z,998.80
2019-05-23T23:22:19.897Z,998.83
2019-05-23T23:24:19.871Z,998.84
2019-05-23T23:26:19.857Z,998.79
2019-05-23T23:28:19.838Z,998.81
